createdAt,value
2022-11-28T00:00:38.874Z,5.22
2022-11-28T00:03:40.890Z,5.65
2022-11-28T00:06:45.882Z,6.30
2022-11-28T00:09:47.922Z,7.20
2022-11-28T00:12:49.825Z,7.35
2022-11-28T00:16:15.011Z,5.85
2022-11-28T00:19:16.967Z,6.75
2022-11-28T00:22:18.957Z,5.88
2022-11-28T00:25:20.823Z,6.70
2022-11-28T00:28:22.727Z,5.78
2022-11-28T00:31:29.295Z,6.10
2022-11-28T00:34:31.551Z,7.28
2022-11-28T00:37:33.483Z,7.82
2022-11-28T00:40:35.408Z,9.32
2022-11-28T00:43:37.808Z,7.03
2022-11-28T00:46:39.804Z,7.38
2022-11-28T00:49:42.207Z,6.30
2022-11-28T00:52:44.133Z,6.60
2022-11-28T00:55:45.987Z,7.85
2022-11-28T00:58:49.826Z,7.55
2022-11-28T01:01:52.800Z,7.53
2022-11-28T01:07:56.625Z,6.40
2022-11-28T01:10:59.106Z,8.60
2022-11-28T01:14:02.141Z,7.78
2022-11-28T01:20:08.682Z,7.82
2022-11-28T01:23:11.583Z,5.93
2022-11-28T01:26:19.953Z,7.32
2022-11-28T01:29:22.727Z,7.50
2022-11-28T01:32:24.680Z,8.35
2022-11-28T01:35:26.665Z,10.27
2022-11-28T01:38:29.414Z,7.37
2022-11-28T01:41:31.383Z,5.53
2022-11-28T01:44:33.187Z,7.00
2022-11-28T01:47:35.753Z,7.75
2022-11-28T01:50:38.664Z,6.68
2022-11-28T01:56:52.950Z,6.38
2022-11-28T02:00:01.371Z,8.15
2022-11-28T02:03:09.308Z,7.65
2022-11-28T02:06:14.393Z,6.88
2022-11-28T02:09:17.155Z,7.78
2022-11-28T02:12:30.748Z,8.20
2022-11-28T02:15:46.588Z,8.45
2022-11-28T02:19:27.442Z,6.97
2022-11-28T02:22:47.371Z,7.90
2022-11-28T02:26:27.235Z,7.63
2022-11-28T02:29:51.841Z,6.93
2022-11-28T02:33:18.707Z,7.80
2022-11-28T02:36:44.053Z,7.72
2022-11-28T02:40:13.788Z,7.70
2022-11-28T02:43:32.601Z,7.30
2022-11-28T02:46:55.926Z,6.93
2022-11-28T02:53:12.369Z,6.68
2022-11-28T02:56:14.505Z,7.57
2022-11-28T02:59:32.683Z,6.75
2022-11-28T03:02:35.606Z,6.50
2022-11-28T03:09:06.285Z,6.97
2022-11-28T03:12:17.017Z,6.90
2022-11-28T03:15:27.842Z,7.50
2022-11-28T03:18:40.179Z,7.45
2022-11-28T03:22:04.433Z,6.75
2022-11-28T03:25:28.764Z,6.68
2022-11-28T03:28:43.389Z,7.78
2022-11-28T03:31:52.388Z,6.63
2022-11-28T03:35:06.999Z,7.15
2022-11-28T03:38:21.882Z,7.55
2022-11-28T03:42:05.353Z,7.20
2022-11-28T03:45:16.055Z,6.75
2022-11-28T03:48:30.073Z,7.38
2022-11-28T03:51:46.433Z,7.63
2022-11-28T03:54:56.383Z,7.60
2022-11-28T03:58:02.898Z,7.05
2022-11-28T04:01:16.616Z,8.60
2022-11-28T04:04:27.239Z,8.82
2022-11-28T04:07:34.625Z,7.97
2022-11-28T04:10:51.510Z,6.88
2022-11-28T04:14:18.881Z,8.57
2022-11-28T04:17:38.217Z,7.45
2022-11-28T04:20:45.543Z,9.13
2022-11-28T04:23:50.696Z,8.82
2022-11-28T04:26:59.331Z,7.82
2022-11-28T04:30:03.878Z,9.48
2022-11-28T04:33:10.093Z,9.30
2022-11-28T04:36:14.596Z,9.05
2022-11-28T04:39:19.726Z,9.05
2022-11-28T04:42:26.695Z,7.60
2022-11-28T04:45:36.901Z,7.85
2022-11-28T04:48:38.930Z,7.78
2022-11-28T04:51:53.511Z,7.40
2022-11-28T04:55:12.295Z,8.07
2022-11-28T04:58:34.510Z,7.78
2022-11-28T05:01:38.952Z,8.68
2022-11-28T05:04:43.428Z,8.60
2022-11-28T05:07:45.627Z,7.45
2022-11-28T05:10:47.910Z,7.57
2022-11-28T05:13:49.798Z,7.82
2022-11-28T05:16:51.736Z,7.82
2022-11-28T05:19:53.584Z,8.93
2022-11-28T05:22:55.813Z,7.95
2022-11-28T05:25:57.743Z,8.20
2022-11-28T05:28:59.917Z,9.43
2022-11-28T05:32:01.877Z,8.10
2022-11-28T05:35:04.877Z,8.83
2022-11-28T05:41:23.442Z,9.38
2022-11-28T05:44:27.144Z,9.07
2022-11-28T05:47:33.642Z,11.18
2022-11-28T05:50:39.811Z,8.50
2022-11-28T05:53:42.256Z,8.82
2022-11-28T05:56:44.197Z,9.73
2022-11-28T05:59:46.114Z,11.15
2022-11-28T06:02:48.015Z,9.13
2022-11-28T06:05:49.997Z,10.25
2022-11-28T06:08:52.467Z,12.93
2022-11-28T06:11:54.343Z,12.13
2022-11-28T06:14:56.241Z,12.73
2022-11-28T06:17:58.106Z,12.52
2022-11-28T06:21:03.834Z,10.50
2022-11-28T06:24:06.367Z,13.00
2022-11-28T06:27:08.285Z,14.93
2022-11-28T06:30:10.383Z,17.73
2022-11-28T06:33:12.247Z,13.57
2022-11-28T06:36:15.554Z,18.35
2022-11-28T06:39:17.721Z,17.65
2022-11-28T06:42:20.023Z,21.23
2022-11-28T06:45:21.891Z,36.15
2022-11-28T06:48:24.554Z,36.45
2022-11-28T06:51:26.511Z,32.28
2022-11-28T06:54:28.833Z,18.63
2022-11-28T06:57:32.750Z,13.02
2022-11-28T07:00:35.538Z,24.50
2022-11-28T07:03:38.642Z,23.17
2022-11-28T07:06:40.909Z,17.52
2022-11-28T07:09:43.017Z,18.05
2022-11-28T07:12:45.160Z,17.48
2022-11-28T07:15:51.308Z,15.65
2022-11-28T07:18:56.357Z,17.13
2022-11-28T07:21:58.245Z,22.42
2022-11-28T07:25:00.107Z,24.63
2022-11-28T07:28:01.880Z,22.50
2022-11-28T07:31:11.867Z,22.23
2022-11-28T07:34:13.794Z,33.35
2022-11-28T07:37:16.089Z,25.55
2022-11-28T07:40:19.801Z,32.90
2022-11-28T07:43:21.731Z,27.55
2022-11-28T07:46:24.977Z,29.60
2022-11-28T07:49:26.877Z,20.33
2022-11-28T07:52:28.783Z,22.08
2022-11-28T07:55:30.703Z,18.38
2022-11-28T07:58:33.754Z,18.85
2022-11-28T17:18:19.007Z,19.98
2022-11-28T17:21:37.017Z,18.27
2022-11-28T17:24:39.140Z,15.50
2022-11-28T17:27:41.015Z,17.42
2022-11-28T17:30:42.975Z,14.40
2022-11-28T17:33:47.277Z,12.07
2022-11-28T17:36:49.992Z,13.30
2022-11-28T17:40:10.735Z,13.48
2022-11-28T17:43:18.186Z,14.60
2022-11-28T17:46:21.512Z,17.63
2022-11-28T17:49:23.811Z,14.18
2022-11-28T17:52:30.161Z,11.20
2022-11-28T17:55:33.132Z,16.58
2022-11-28T17:58:35.152Z,13.38
2022-11-28T18:01:37.881Z,12.87
2022-11-28T18:04:39.831Z,16.58
2022-11-28T18:07:42.486Z,16.15
2022-11-28T18:10:46.832Z,23.23
2022-11-28T18:13:48.729Z,19.70
2022-11-28T18:16:50.706Z,18.27
2022-11-28T18:19:57.308Z,17.02
2022-11-28T18:23:00.483Z,12.85
2022-11-28T18:26:09.296Z,18.85
2022-11-28T18:29:11.265Z,16.40
2022-11-28T18:32:13.234Z,18.02
2022-11-28T18:35:15.128Z,14.50
2022-11-28T18:38:18.334Z,15.20
2022-11-28T18:41:21.002Z,14.38
2022-11-28T18:44:23.286Z,14.65
2022-11-28T18:47:26.880Z,14.40
2022-11-28T18:50:28.975Z,14.95
2022-11-28T18:53:32.142Z,16.83
2022-11-28T18:56:34.307Z,15.85
2022-11-28T18:59:36.263Z,14.45
2022-11-28T19:02:38.482Z,10.88
2022-11-28T19:05:43.666Z,15.63
2022-11-28T19:08:46.434Z,17.38
2022-11-28T19:11:48.434Z,33.00
2022-11-28T19:14:51.237Z,20.65
2022-11-28T19:17:53.198Z,28.00
2022-11-28T19:20:55.100Z,19.07
2022-11-28T19:23:57.934Z,29.73
2022-11-28T19:26:59.880Z,13.52
2022-11-28T19:30:01.886Z,17.43
2022-11-28T19:33:04.154Z,15.90
2022-11-28T19:36:07.893Z,24.37
2022-11-28T19:39:17.103Z,14.77
2022-11-28T19:42:19.004Z,11.85
2022-11-28T19:45:20.884Z,17.08
2022-11-28T19:48:23.254Z,14.57
2022-11-28T19:51:25.314Z,12.80
2022-11-28T19:54:27.359Z,14.43
2022-11-28T19:57:30.753Z,14.38
2022-11-28T20:00:32.624Z,12.75
2022-11-28T20:03:36.333Z,15.98
2022-11-28T20:06:38.467Z,14.55
2022-11-28T20:09:40.407Z,10.53
2022-11-28T20:12:43.008Z,14.07
2022-11-28T20:15:45.033Z,13.17
2022-11-28T20:18:48.172Z,11.70
2022-11-28T20:21:50.192Z,11.73
2022-11-28T20:24:52.390Z,12.03
2022-11-28T20:27:54.431Z,10.05
2022-11-28T20:30:56.675Z,12.95
2022-11-28T20:33:58.697Z,14.85
2022-11-28T20:37:02.003Z,13.57
2022-11-28T20:40:04.251Z,14.73
2022-11-28T20:43:06.272Z,12.25
2022-11-28T20:46:17.366Z,12.00
2022-11-28T20:49:19.471Z,10.90
2022-11-28T20:52:21.311Z,11.27
2022-11-28T20:55:23.221Z,11.02
2022-11-28T20:58:25.137Z,12.50
2022-11-28T21:01:35.749Z,11.27
2022-11-28T21:04:37.695Z,11.82
2022-11-28T21:07:39.606Z,14.05
2022-11-28T21:10:41.537Z,12.10
2022-11-28T21:13:43.424Z,11.73
2022-11-28T21:16:45.533Z,15.20
2022-11-28T21:19:47.485Z,9.10
2022-11-28T21:22:49.307Z,12.23
2022-11-28T21:25:51.097Z,14.50
2022-11-28T21:28:55.508Z,16.85
2022-11-28T21:31:57.349Z,18.52
2022-11-28T21:35:04.203Z,12.65
2022-11-28T21:38:07.026Z,15.18
2022-11-28T21:41:08.907Z,14.32
2022-11-28T21:44:10.907Z,13.50
2022-11-28T21:47:12.918Z,15.50
2022-11-28T21:50:14.797Z,16.35
2022-11-28T21:53:17.969Z,12.98
2022-11-28T21:56:20.328Z,13.15
2022-11-28T21:59:22.783Z,11.02
2022-11-28T22:02:30.613Z,14.27
2022-11-28T22:05:34.249Z,10.88
2022-11-28T22:08:36.140Z,13.10
2022-11-28T22:11:39.267Z,12.60
2022-11-28T22:14:41.158Z,12.70
2022-11-28T22:17:43.091Z,14.43
2022-11-28T22:20:47.782Z,13.40
2022-11-28T22:23:53.557Z,10.85
2022-11-28T22:26:55.678Z,9.83
2022-11-28T22:33:00.855Z,9.60
2022-11-28T22:36:10.894Z,10.95
2022-11-28T22:39:13.134Z,11.32
2022-11-28T22:42:15.084Z,9.00
2022-11-28T22:45:17.117Z,11.95
2022-11-28T22:48:19.119Z,10.60
2022-11-28T22:51:25.138Z,12.05
2022-11-28T22:54:28.191Z,10.65
2022-11-28T22:57:30.055Z,9.75
2022-11-28T23:00:32.307Z,10.75
2022-11-28T23:03:35.434Z,9.57
2022-11-28T23:06:37.499Z,8.32
2022-11-28T23:09:39.669Z,8.30
2022-11-28T23:12:42.063Z,8.30
2022-11-28T23:15:48.432Z,8.75
2022-11-28T23:18:55.526Z,10.93
2022-11-28T23:21:57.623Z,10.38
2022-11-28T23:24:59.666Z,10.07
2022-11-28T23:28:01.584Z,8.50
2022-11-28T23:31:09.584Z,11.27
2022-11-28T23:34:11.692Z,9.32
2022-11-28T23:37:14.162Z,10.25
2022-11-28T23:40:16.021Z,10.18
2022-11-28T23:43:17.864Z,11.60
2022-11-28T23:46:21.825Z,9.02
2022-11-28T23:49:23.643Z,10.65
2022-11-28T23:52:25.463Z,10.13
2022-11-28T23:55:27.242Z,10.93
2022-11-28T23:58:29.129Z,10.70
